createdAt,value
2023-04-28T00:01:16.248Z,1.32
2023-04-28T00:03:42.667Z,1.14
2023-04-28T00:06:09.126Z,1.21
2023-04-28T00:08:35.497Z,1.21
2023-04-28T00:11:01.832Z,1.23
2023-04-28T00:13:28.182Z,1.30
2023-04-28T00:15:54.674Z,1.12
2023-04-28T00:18:21.181Z,1.30
2023-04-28T00:20:47.591Z,1.28
2023-04-28T00:23:14.002Z,1.21
2023-04-28T00:25:40.304Z,1.23
2023-04-28T00:28:06.638Z,1.22
2023-04-28T00:30:33.012Z,1.16
2023-04-28T00:32:59.409Z,1.28
2023-04-28T00:35:25.783Z,1.11
2023-04-28T00:37:52.096Z,1.20
2023-04-28T00:40:18.441Z,1.07
2023-04-28T00:42:44.754Z,1.27
2023-04-28T00:45:11.050Z,1.16
2023-04-28T00:47:37.530Z,1.01
2023-04-28T00:50:03.872Z,1.13
2023-04-28T00:52:30.221Z,0.99
2023-04-28T00:54:56.578Z,1.12
2023-04-28T00:57:22.888Z,1.20
2023-04-28T00:59:49.259Z,0.92
2023-04-28T01:02:15.733Z,1.00
2023-04-28T01:04:42.308Z,0.88
2023-04-28T01:07:08.692Z,1.07
2023-04-28T01:09:35.051Z,1.04
2023-04-28T01:12:01.348Z,1.10
2023-04-28T01:14:27.652Z,1.04
2023-04-28T01:16:54.099Z,1.01
2023-04-28T01:19:20.563Z,0.90
2023-04-28T01:21:46.922Z,0.92
2023-04-28T01:24:13.329Z,0.96
2023-04-28T01:26:39.740Z,1.10
2023-04-28T01:29:06.125Z,0.94
2023-04-28T01:31:32.505Z,0.93
2023-04-28T01:33:58.850Z,0.86
2023-04-28T01:36:25.182Z,0.87
2023-04-28T01:38:51.522Z,1.06
2023-04-28T01:41:17.898Z,0.96
2023-04-28T01:43:44.302Z,0.89
2023-04-28T01:46:10.678Z,0.89
2023-04-28T01:48:37.058Z,0.95
2023-04-28T01:51:03.369Z,0.83
2023-04-28T01:53:29.674Z,0.87
2023-04-28T01:55:55.987Z,0.86
2023-04-28T01:58:22.275Z,0.96
2023-04-28T02:00:48.621Z,0.87
2023-04-28T02:03:15.142Z,0.92
2023-04-28T02:05:41.545Z,0.89
2023-04-28T02:08:07.857Z,0.90
2023-04-28T02:10:34.234Z,0.88
2023-04-28T02:13:00.532Z,0.85
2023-04-28T02:15:26.892Z,0.92
2023-04-28T02:17:53.218Z,0.96
2023-04-28T02:20:19.550Z,0.87
2023-04-28T02:22:45.874Z,0.87
2023-04-28T02:25:12.174Z,0.83
2023-04-28T02:27:38.568Z,0.91
2023-04-28T02:30:04.888Z,0.83
2023-04-28T02:32:31.218Z,0.88
2023-04-28T02:34:57.511Z,0.67
2023-04-28T02:37:23.868Z,0.73
2023-04-28T02:39:50.352Z,0.69
2023-04-28T02:42:16.658Z,0.70
2023-04-28T02:44:43.000Z,0.70
2023-04-28T02:47:09.533Z,0.81
2023-04-28T02:49:35.915Z,0.85
2023-04-28T02:52:02.363Z,0.86
2023-04-28T02:54:28.768Z,0.77
2023-04-28T02:56:55.098Z,0.74
2023-04-28T02:59:21.381Z,0.82
2023-04-28T03:01:47.954Z,0.80
2023-04-28T03:04:14.666Z,0.78
2023-04-28T03:06:41.149Z,0.74
2023-04-28T03:09:07.452Z,0.79
2023-04-28T03:11:33.751Z,0.79
2023-04-28T03:14:00.138Z,0.66
2023-04-28T03:16:26.457Z,0.74
2023-04-28T03:18:52.759Z,0.66
2023-04-28T03:21:19.050Z,0.60
2023-04-28T03:23:45.352Z,0.63
2023-04-28T03:26:11.690Z,0.72
2023-04-28T03:28:38.040Z,0.64
2023-04-28T03:31:04.373Z,0.68
2023-04-28T03:33:30.662Z,0.70
2023-04-28T03:35:56.981Z,0.59
2023-04-28T03:38:23.274Z,0.73
2023-04-28T03:40:49.569Z,0.68
2023-04-28T03:43:15.914Z,0.60
2023-04-28T03:45:42.276Z,0.59
2023-04-28T03:48:08.684Z,0.63
2023-04-28T03:50:35.059Z,0.68
2023-04-28T03:53:01.367Z,0.70
2023-04-28T03:55:27.710Z,0.63
2023-04-28T03:57:54.041Z,0.66
2023-04-28T04:00:20.384Z,0.63
2023-04-28T04:02:46.841Z,0.61
2023-04-28T04:05:13.432Z,0.59
2023-04-28T04:07:39.821Z,0.61
2023-04-28T04:10:06.179Z,0.61
2023-04-28T04:12:32.500Z,0.59
2023-04-28T04:14:58.787Z,0.57
2023-04-28T04:17:25.188Z,0.51
2023-04-28T04:19:51.520Z,0.63
2023-04-28T04:22:17.837Z,0.56
2023-04-28T04:24:44.164Z,0.55
2023-04-28T04:27:10.458Z,0.53
2023-04-28T04:29:36.806Z,0.63
2023-04-28T04:32:03.137Z,0.58
2023-04-28T04:34:29.461Z,0.64
2023-04-28T04:36:55.836Z,0.58
2023-04-28T04:39:22.187Z,0.53
2023-04-28T04:41:48.563Z,0.50
2023-04-28T04:44:14.910Z,0.50
2023-04-28T04:46:41.303Z,0.53
2023-04-28T04:49:07.777Z,0.42
2023-04-28T04:51:34.145Z,0.58
2023-04-28T04:54:00.514Z,0.51
2023-04-28T04:56:26.858Z,0.58
2023-04-28T04:58:53.202Z,0.48
2023-04-28T05:01:19.601Z,0.56
2023-04-28T05:03:46.324Z,0.62
2023-04-28T05:06:12.740Z,0.51
2023-04-28T05:08:39.040Z,0.61
2023-04-28T05:11:05.401Z,0.46
2023-04-28T05:13:31.709Z,0.52
2023-04-28T05:15:58.087Z,0.52
2023-04-28T05:18:24.470Z,0.48
2023-04-28T05:20:50.767Z,0.55
2023-04-28T05:23:17.079Z,0.48
2023-04-28T05:25:43.367Z,0.57
2023-04-28T05:28:09.668Z,0.61
2023-04-28T05:30:36.014Z,0.55
2023-04-28T05:33:02.401Z,0.54
2023-04-28T05:35:28.754Z,0.46
2023-04-28T05:37:55.103Z,0.49
2023-04-28T05:40:21.558Z,0.47
2023-04-28T05:42:47.941Z,0.50
2023-04-28T05:45:14.249Z,0.58
2023-04-28T05:47:40.602Z,0.50
2023-04-28T05:50:06.979Z,0.44
2023-04-28T05:52:33.347Z,0.56
2023-04-28T05:54:59.723Z,0.53
2023-04-28T05:57:26.108Z,0.55
2023-04-28T05:59:52.473Z,0.64
2023-04-28T06:02:20.549Z,0.54
2023-04-28T06:04:49.108Z,0.51
2023-04-28T06:07:15.579Z,0.59
2023-04-28T06:09:41.924Z,0.60
2023-04-28T06:12:08.248Z,0.65
2023-04-28T06:14:34.569Z,0.68
2023-04-28T06:17:00.942Z,0.67
2023-04-28T06:19:27.249Z,0.66
2023-04-28T06:21:53.537Z,0.68
2023-04-28T06:24:19.896Z,0.73
2023-04-28T06:26:46.248Z,0.65
2023-04-28T06:29:12.612Z,0.62
2023-04-28T06:31:39.031Z,0.60
2023-04-28T06:34:06.524Z,0.57
2023-04-28T06:36:32.826Z,0.54
2023-04-28T06:38:59.138Z,0.70
2023-04-28T06:41:25.499Z,0.63
2023-04-28T06:43:51.803Z,0.67
2023-04-28T06:46:18.146Z,0.67
2023-04-28T06:48:44.466Z,0.79
2023-04-28T06:51:10.804Z,0.66
2023-04-28T06:53:37.185Z,0.69
2023-04-28T06:56:03.568Z,0.71
2023-04-28T06:58:29.946Z,0.93
2023-04-28T07:00:56.347Z,0.77
2023-04-28T07:03:22.767Z,0.78
2023-04-28T07:05:49.461Z,0.75
2023-04-28T07:08:15.806Z,0.77
2023-04-28T07:10:42.163Z,0.79
2023-04-28T07:13:08.825Z,0.87
2023-04-28T07:15:35.135Z,0.78
2023-04-28T07:18:01.760Z,0.87
2023-04-28T07:20:28.081Z,0.88
2023-04-28T07:22:54.387Z,0.98
2023-04-28T07:25:20.685Z,0.88
2023-04-28T07:27:47.047Z,0.89
2023-04-28T07:30:26.768Z,0.93
2023-04-28T07:32:54.621Z,0.89
2023-04-28T07:35:21.225Z,0.92
2023-04-28T07:37:47.648Z,0.91
2023-04-28T07:40:13.993Z,1.00
2023-04-28T07:42:40.369Z,1.12
2023-04-28T07:45:06.682Z,1.17
2023-04-28T07:47:33.123Z,1.05
2023-04-28T07:49:59.456Z,1.06
2023-04-28T07:52:25.851Z,1.04
2023-04-28T07:54:52.160Z,1.04
2023-04-28T07:57:18.523Z,1.18
2023-04-28T07:59:44.832Z,1.12
2023-04-28T08:02:11.191Z,1.14
2023-04-28T08:04:40.778Z,1.23
2023-04-28T08:07:07.244Z,1.24
2023-04-28T08:09:33.584Z,1.12
2023-04-28T08:11:59.897Z,1.28
2023-04-28T08:14:26.252Z,1.12
2023-04-28T08:16:52.644Z,1.06
2023-04-28T08:19:18.994Z,1.23
2023-04-28T08:21:45.303Z,1.19
2023-04-28T08:24:11.651Z,1.14
2023-04-28T08:26:37.975Z,1.33
2023-04-28T08:29:04.332Z,1.20
2023-04-28T08:31:30.734Z,1.07
2023-04-28T08:33:57.083Z,1.29
2023-04-28T08:36:23.452Z,1.19
2023-04-28T08:38:49.772Z,1.21
2023-04-28T08:41:16.074Z,1.20
2023-04-28T08:43:42.412Z,1.30
2023-04-28T08:46:08.790Z,1.20
2023-04-28T08:48:35.122Z,1.26
2023-04-28T08:51:01.478Z,1.18
2023-04-28T08:53:27.826Z,1.37
2023-04-28T08:55:54.186Z,1.16
2023-04-28T08:58:20.506Z,1.25
2023-04-28T09:00:46.856Z,1.49
2023-04-28T09:03:13.348Z,1.17
2023-04-28T09:05:39.949Z,1.28
2023-04-28T09:08:06.336Z,1.34
2023-04-28T09:10:32.680Z,1.42
2023-04-28T09:12:59.042Z,1.29
2023-04-28T09:15:25.402Z,1.31
2023-04-28T09:17:51.738Z,1.29
2023-04-28T09:20:18.185Z,1.39
2023-04-28T09:22:44.618Z,1.34
2023-04-28T09:25:10.947Z,1.36
2023-04-28T09:27:37.315Z,1.38
2023-04-28T09:30:03.705Z,1.52
2023-04-28T09:32:30.101Z,1.36
2023-04-28T09:34:56.555Z,1.36
2023-04-28T09:37:23.037Z,1.39
2023-04-28T09:39:49.464Z,1.35
2023-04-28T09:42:15.834Z,1.51
2023-04-28T09:44:42.182Z,1.39
2023-04-28T09:47:08.494Z,1.29
2023-04-28T09:49:34.793Z,1.45
2023-04-28T09:52:01.136Z,1.43
2023-04-28T09:54:27.435Z,1.45
2023-04-28T09:56:53.757Z,1.47
2023-04-28T09:59:20.095Z,1.40
2023-04-28T10:01:46.536Z,1.48
2023-04-28T10:04:13.291Z,1.40
2023-04-28T10:06:39.750Z,1.42
2023-04-28T10:09:06.106Z,1.47
2023-04-28T10:11:32.490Z,1.36
2023-04-28T10:13:58.857Z,1.58
2023-04-28T10:16:25.246Z,1.55
2023-04-28T10:18:51.625Z,1.34
2023-04-28T10:21:17.944Z,1.52
2023-04-28T10:23:44.273Z,1.58
2023-04-28T10:26:10.592Z,1.44
2023-04-28T10:28:36.964Z,1.49
2023-04-28T10:31:04.211Z,1.54
2023-04-28T10:33:30.735Z,1.64
2023-04-28T10:35:57.160Z,1.47
2023-04-28T10:38:23.546Z,1.55
2023-04-28T10:40:49.941Z,1.59
2023-04-28T10:43:16.327Z,1.57
2023-04-28T10:45:42.682Z,1.64
2023-04-28T10:48:09.010Z,1.47
2023-04-28T10:50:39.074Z,1.55
2023-04-28T10:53:05.740Z,1.39
2023-04-28T10:55:32.096Z,1.59
2023-04-28T10:57:58.443Z,1.48
2023-04-28T11:00:24.766Z,1.76
2023-04-28T11:02:51.243Z,1.66
2023-04-28T11:05:17.780Z,1.63
2023-04-28T11:07:44.231Z,1.53
2023-04-28T11:10:10.637Z,1.51
2023-04-28T11:12:37.016Z,1.51
2023-04-28T11:15:03.400Z,1.51
2023-04-28T11:17:29.793Z,1.40
2023-04-28T11:19:56.207Z,1.58
2023-04-28T11:22:22.570Z,1.49
2023-04-28T11:24:48.992Z,1.53
2023-04-28T11:27:15.383Z,1.61
2023-04-28T11:29:41.806Z,1.54
2023-04-28T11:32:08.236Z,1.52
2023-04-28T11:34:34.775Z,1.55
2023-04-28T11:37:01.214Z,1.61
2023-04-28T11:39:27.574Z,1.57
2023-04-28T11:41:53.964Z,1.69
2023-04-28T11:44:20.367Z,1.55
2023-04-28T11:46:46.719Z,1.53
2023-04-28T11:49:13.126Z,1.54
2023-04-28T11:51:39.496Z,1.50
2023-04-28T11:54:05.847Z,1.51
2023-04-28T11:56:32.190Z,1.52
2023-04-28T11:58:58.521Z,1.60
2023-04-28T12:01:24.869Z,1.56
2023-04-28T12:03:51.229Z,1.54
2023-04-28T12:06:17.758Z,1.54
2023-04-28T12:08:44.126Z,1.50
2023-04-28T12:11:10.474Z,1.42
2023-04-28T12:13:36.842Z,1.60
2023-04-28T12:16:03.243Z,1.57
2023-04-28T12:18:29.662Z,1.54
2023-04-28T12:20:55.985Z,1.65
2023-04-28T12:23:22.348Z,1.43
2023-04-28T12:25:48.654Z,1.50
2023-04-28T12:28:15.002Z,1.55
2023-04-28T12:30:41.542Z,1.54
2023-04-28T12:33:07.921Z,1.72
2023-04-28T12:35:34.304Z,1.61
2023-04-28T12:38:00.696Z,1.57
2023-04-28T12:40:27.237Z,1.61
2023-04-28T12:42:53.689Z,1.63
2023-04-28T12:45:20.043Z,1.64
2023-04-28T12:47:46.481Z,1.60
2023-04-28T12:50:12.819Z,1.56
2023-04-28T12:52:39.161Z,1.52
2023-04-28T12:55:05.524Z,1.68
2023-04-28T12:57:31.927Z,1.66
2023-04-28T12:59:58.286Z,1.60
2023-04-28T13:02:24.689Z,1.54
2023-04-28T13:04:51.253Z,1.59
2023-04-28T13:07:17.685Z,1.75
2023-04-28T13:09:44.488Z,1.70
2023-04-28T13:12:11.015Z,1.64
2023-04-28T13:14:38.815Z,1.63
2023-04-28T13:17:05.296Z,1.65
2023-04-28T13:19:31.680Z,1.63
2023-04-28T13:21:58.162Z,1.67
2023-04-28T13:24:24.484Z,1.72
2023-04-28T13:26:50.793Z,1.48
2023-04-28T13:29:17.247Z,1.60
2023-04-28T13:31:43.660Z,1.52
2023-04-28T13:34:10.007Z,1.61
2023-04-28T13:36:36.385Z,1.54
2023-04-28T13:39:02.845Z,1.52
2023-04-28T13:41:29.236Z,1.53
2023-04-28T13:43:55.598Z,1.43
2023-04-28T13:46:22.012Z,1.48
2023-04-28T13:48:48.422Z,1.56
2023-04-28T13:51:14.775Z,1.50
2023-04-28T13:53:41.098Z,1.64
2023-04-28T13:56:07.425Z,1.71
2023-04-28T13:58:33.743Z,1.80
2023-04-28T14:01:00.090Z,1.60
2023-04-28T14:03:26.788Z,1.77
2023-04-28T14:05:53.245Z,1.74
2023-04-28T14:08:20.654Z,1.78
2023-04-28T14:10:47.233Z,1.61
2023-04-28T14:13:13.617Z,1.86
2023-04-28T14:15:47.862Z,1.70
2023-04-28T14:18:23.824Z,1.81
2023-04-28T14:20:50.122Z,1.83
2023-04-28T14:23:16.425Z,1.78
2023-04-28T14:25:42.770Z,1.63
2023-04-28T14:28:09.078Z,1.70
2023-04-28T14:30:35.378Z,1.57
2023-04-28T14:33:01.833Z,1.55
2023-04-28T14:35:28.198Z,1.55
2023-04-28T14:37:54.535Z,1.73
2023-04-28T14:40:20.872Z,1.41
2023-04-28T14:42:47.235Z,1.67
2023-04-28T14:45:13.617Z,1.60
2023-04-28T14:47:39.992Z,1.48
2023-04-28T14:50:06.379Z,1.71
2023-04-28T14:52:32.681Z,1.56
2023-04-28T14:54:59.032Z,1.57
2023-04-28T14:57:25.373Z,1.73
2023-04-28T14:59:51.679Z,1.50
2023-04-28T15:02:18.057Z,1.59
2023-04-28T15:04:44.577Z,1.55
2023-04-28T15:07:11.014Z,1.65
2023-04-28T15:09:37.408Z,1.57
2023-04-28T15:12:03.733Z,1.54
2023-04-28T15:14:30.051Z,1.64
2023-04-28T15:16:56.405Z,1.56
2023-04-28T15:19:22.815Z,1.59
2023-04-28T15:21:49.165Z,1.62
2023-04-28T15:24:15.473Z,1.57
2023-04-28T15:26:41.789Z,1.43
2023-04-28T15:29:08.144Z,1.39
2023-04-28T15:31:34.620Z,1.40
2023-04-28T15:34:00.990Z,1.43
2023-04-28T15:36:27.296Z,1.52
2023-04-28T15:38:53.591Z,1.36
2023-04-28T15:41:19.906Z,1.52
2023-04-28T15:43:46.257Z,1.34
2023-04-28T15:46:12.623Z,1.49
2023-04-28T15:48:39.141Z,1.43
2023-04-28T15:51:05.517Z,1.42
2023-04-28T15:53:31.839Z,1.51
2023-04-28T15:55:58.200Z,1.42
2023-04-28T15:58:24.583Z,1.40
2023-04-28T16:00:50.900Z,1.44
2023-04-28T16:03:17.401Z,1.33
2023-04-28T16:05:43.906Z,1.39
2023-04-28T16:08:10.255Z,1.62
2023-04-28T16:10:36.635Z,1.42
2023-04-28T16:13:03.108Z,1.57
2023-04-28T16:15:29.438Z,1.60
2023-04-28T16:17:55.865Z,1.52
2023-04-28T16:20:22.244Z,1.69
2023-04-28T16:22:48.594Z,1.52
2023-04-28T16:25:14.966Z,1.71
2023-04-28T16:27:41.336Z,1.53
2023-04-28T16:30:07.693Z,1.80
2023-04-28T16:32:34.049Z,1.63
2023-04-28T16:35:00.375Z,1.52
2023-04-28T16:37:26.674Z,1.41
2023-04-28T16:39:53.094Z,1.53
2023-04-28T16:42:19.423Z,1.57
2023-04-28T16:44:45.790Z,1.56
2023-04-28T16:47:12.127Z,1.64
2023-04-28T16:49:38.435Z,1.71
2023-04-28T16:52:04.804Z,1.52
2023-04-28T16:54:31.161Z,1.55
2023-04-28T16:56:57.463Z,1.52
2023-04-28T16:59:23.783Z,1.54
2023-04-28T17:01:50.190Z,1.58
2023-04-28T17:04:16.958Z,1.64
2023-04-28T17:06:43.606Z,1.63
2023-04-28T17:09:10.267Z,1.69
2023-04-28T17:11:36.593Z,1.69
2023-04-28T17:14:02.947Z,1.66
2023-04-28T17:16:29.345Z,1.58
2023-04-28T17:18:55.708Z,1.65
2023-04-28T17:21:22.124Z,1.61
2023-04-28T17:23:48.530Z,1.65
2023-04-28T17:26:14.859Z,1.63
2023-04-28T17:28:41.242Z,1.71
2023-04-28T17:31:07.578Z,1.47
2023-04-28T17:33:33.914Z,1.64
2023-04-28T17:36:00.250Z,1.40
2023-04-28T17:38:26.611Z,1.60
2023-04-28T17:40:52.994Z,1.54
2023-04-28T17:43:19.323Z,1.65
2023-04-28T17:45:45.626Z,1.55
2023-04-28T17:48:11.983Z,1.51
2023-04-28T17:50:38.532Z,1.45
2023-04-28T17:53:04.849Z,1.58
2023-04-28T17:55:31.166Z,1.50
2023-04-28T17:57:57.530Z,1.57
2023-04-28T18:00:23.853Z,1.62
2023-04-28T18:02:50.334Z,1.68
2023-04-28T18:05:16.780Z,1.58
2023-04-28T18:07:43.184Z,1.43
2023-04-28T18:10:09.532Z,1.41
2023-04-28T18:12:35.897Z,1.45
2023-04-28T18:15:02.223Z,1.50
2023-04-28T18:17:28.544Z,1.41
2023-04-28T18:19:54.849Z,1.56
2023-04-28T18:22:21.184Z,1.38
2023-04-28T18:24:47.522Z,1.42
2023-04-28T18:27:13.983Z,1.46
2023-04-28T18:29:40.328Z,1.42
2023-04-28T18:32:06.819Z,1.57
2023-04-28T18:34:33.247Z,1.57
2023-04-28T18:36:59.589Z,1.41
2023-04-28T18:39:26.067Z,1.62
2023-04-28T18:41:52.400Z,1.51
2023-04-28T18:44:19.005Z,1.46
2023-04-28T18:46:45.314Z,1.46
2023-04-28T18:49:11.617Z,1.45
2023-04-28T18:51:38.021Z,1.48
2023-04-28T18:54:04.333Z,1.43
2023-04-28T18:56:30.674Z,1.53
2023-04-28T18:58:56.985Z,1.53
2023-04-28T19:01:23.359Z,1.45
2023-04-28T19:03:49.905Z,1.44
2023-04-28T19:06:16.341Z,1.17
2023-04-28T19:08:42.757Z,1.32
2023-04-28T19:11:09.117Z,1.38
2023-04-28T19:13:35.477Z,1.40
2023-04-28T19:16:01.827Z,1.35
2023-04-28T19:18:28.179Z,1.32
2023-04-28T19:20:54.572Z,1.66
2023-04-28T19:23:20.899Z,1.59
2023-04-28T19:25:47.338Z,1.56
2023-04-28T19:28:13.782Z,1.37
2023-04-28T19:30:40.167Z,1.45
2023-04-28T19:33:06.617Z,1.55
2023-04-28T19:35:33.011Z,1.46
2023-04-28T19:37:59.368Z,1.58
2023-04-28T19:40:25.670Z,1.67
2023-04-28T19:42:51.984Z,1.49
2023-04-28T19:45:18.294Z,1.58
2023-04-28T19:47:44.726Z,1.56
2023-04-28T19:50:11.160Z,1.68
2023-04-28T19:52:37.546Z,1.71
2023-04-28T19:55:03.864Z,1.83
2023-04-28T19:57:30.210Z,1.81
2023-04-28T19:59:56.635Z,1.85
2023-04-28T20:02:23.150Z,1.79
2023-04-28T20:04:49.755Z,1.81
2023-04-28T20:07:16.159Z,1.89
2023-04-28T20:09:42.512Z,1.87
2023-04-28T20:12:08.852Z,1.93
2023-04-28T20:14:35.174Z,2.04
2023-04-28T20:17:01.483Z,2.23
2023-04-28T20:19:27.852Z,2.10
2023-04-28T20:21:54.222Z,2.20
2023-04-28T20:24:20.573Z,2.09
2023-04-28T20:26:46.929Z,2.23
2023-04-28T20:29:13.249Z,2.33
2023-04-28T20:31:39.579Z,2.37
2023-04-28T20:34:05.934Z,2.44
2023-04-28T20:36:32.307Z,2.33
2023-04-28T20:38:58.666Z,2.24
2023-04-28T20:41:24.993Z,2.48
2023-04-28T20:43:51.386Z,2.59
2023-04-28T20:46:17.763Z,2.71
2023-04-28T20:48:44.120Z,2.76
2023-04-28T20:51:10.423Z,2.62
2023-04-28T20:53:36.764Z,2.50
2023-04-28T20:56:03.243Z,2.55
2023-04-28T20:58:29.592Z,2.55
2023-04-28T21:00:55.970Z,2.67
2023-04-28T21:03:22.364Z,2.76
2023-04-28T21:05:48.964Z,2.73
2023-04-28T21:08:15.272Z,2.69
2023-04-28T21:10:41.653Z,2.83
2023-04-28T21:13:08.015Z,2.69
2023-04-28T21:15:34.368Z,2.57
2023-04-28T21:18:00.827Z,2.63
2023-04-28T21:20:27.146Z,2.40
2023-04-28T21:22:53.454Z,2.63
2023-04-28T21:25:19.761Z,2.71
2023-04-28T21:27:46.143Z,2.84
2023-04-28T21:30:12.461Z,2.66
2023-04-28T21:32:38.877Z,2.53
2023-04-28T21:35:05.361Z,2.71
2023-04-28T21:37:31.664Z,2.74
2023-04-28T21:39:57.984Z,2.74
2023-04-28T21:42:24.299Z,2.55
2023-04-28T21:44:50.619Z,2.62
2023-04-28T21:47:16.981Z,2.48
2023-04-28T21:49:43.341Z,2.59
2023-04-28T21:52:09.873Z,2.74
2023-04-28T21:54:36.232Z,2.45
2023-04-28T21:57:02.556Z,2.41
2023-04-28T21:59:28.909Z,2.49
2023-04-28T22:01:55.268Z,2.32
2023-04-28T22:04:21.935Z,2.41
2023-04-28T22:06:48.369Z,2.19
2023-04-28T22:09:14.677Z,2.21
2023-04-28T22:11:41.050Z,2.31
2023-04-28T22:14:07.515Z,2.33
2023-04-28T22:16:33.869Z,2.24
2023-04-28T22:19:00.212Z,2.17
2023-04-28T22:21:26.549Z,2.11
2023-04-28T22:23:52.924Z,2.18
2023-04-28T22:26:19.334Z,1.89
2023-04-28T22:28:45.634Z,2.22
2023-04-28T22:31:11.994Z,2.10
2023-04-28T22:33:38.352Z,2.07
2023-04-28T22:36:04.657Z,1.76
2023-04-28T22:38:31.169Z,1.86
2023-04-28T22:40:57.521Z,1.94
2023-04-28T22:43:23.845Z,1.91
2023-04-28T22:45:50.193Z,1.78
2023-04-28T22:48:16.551Z,1.84
2023-04-28T22:50:42.915Z,1.99
2023-04-28T22:53:09.245Z,1.99
2023-04-28T22:55:35.599Z,2.00
2023-04-28T22:58:01.939Z,1.79
2023-04-28T23:00:28.286Z,1.84
2023-04-28T23:02:54.770Z,1.85
2023-04-28T23:05:21.182Z,1.70
2023-04-28T23:07:47.580Z,1.84
2023-04-28T23:10:14.670Z,1.71
2023-04-28T23:12:41.133Z,1.79
2023-04-28T23:15:07.495Z,1.80
2023-04-28T23:17:33.868Z,1.80
2023-04-28T23:20:00.248Z,1.82
2023-04-28T23:22:26.618Z,1.76
2023-04-28T23:24:52.946Z,1.64
2023-04-28T23:27:19.275Z,1.63
2023-04-28T23:29:45.660Z,1.59
2023-04-28T23:32:12.044Z,1.71
2023-04-28T23:34:38.368Z,1.67
2023-04-28T23:37:04.704Z,1.70
2023-04-28T23:39:31.127Z,1.85
2023-04-28T23:41:57.495Z,1.63
2023-04-28T23:44:23.819Z,1.59
2023-04-28T23:46:50.122Z,1.62
2023-04-28T23:49:16.520Z,1.58
2023-04-28T23:51:42.921Z,1.71
2023-04-28T23:54:09.308Z,1.58
2023-04-28T23:56:35.737Z,1.63
2023-04-28T23:59:02.042Z,1.44
